Time;durP1;ratioP1;P1;durP2;ratioP2;P2;SDS_P1;SDS_P2;PMS_P1;PMS_P2;Temp;Humidity;BMP_temperature;BMP_pressure;BME280_temperature;BME280_humidity;BME280_pressure;Samples;Min_cycle;Max_cycle;Signal;HPM_P1;HPM_P2
2023/06/13 00:01:22;;;;;;;10.80;8.68;;;17.70;69.00;;;;;;4928135;28;89691;-33
2023/06/13 00:03:49;;;;;;;11.23;8.43;;;17.60;68.80;;;;;;4903417;28;89386;-36
2023/06/13 00:06:15;;;;;;;13.95;9.52;;;17.50;69.50;;;;;;4920953;28;89977;-32
2023/06/13 00:08:42;;;;;;;11.32;10.02;;;17.50;69.70;;;;;;4921322;28;89390;-35
2023/06/13 00:11:08;;;;;;;9.80;8.70;;;17.50;70.50;;;;;;4932594;28;89484;-34
2023/06/13 00:13:34;;;;;;;11.10;9.25;;;17.40;70.90;;;;;;4921712;28;88197;-33
2023/06/13 00:16:00;;;;;;;13.35;9.30;;;17.40;70.80;;;;;;4932967;28;89947;-31
2023/06/13 00:18:30;;;;;;;10.95;9.23;;;17.40;71.30;;;;;;4926784;28;90058;-32
2023/06/13 00:20:58;;;;;;;10.32;9.23;;;17.40;71.10;;;;;;4927902;28;90493;-33
2023/06/13 00:23:24;;;;;;;12.98;9.90;;;17.30;71.80;;;;;;4940863;28;88779;-35
2023/06/13 00:25:50;;;;;;;11.65;9.07;;;17.30;71.80;;;;;;4926125;28;90856;-37
2023/06/13 00:28:16;;;;;;;10.57;9.30;;;17.30;72.20;;;;;;4925093;28;90587;-35
2023/06/13 00:30:41;;;;;;;16.15;10.57;;;17.30;72.10;;;;;;4940486;28;90160;-35
2023/06/13 00:33:07;;;;;;;18.73;9.88;;;17.20;73.20;;;;;;4926752;28;89892;-39
2023/06/13 00:35:33;;;;;;;10.57;8.70;;;17.10;73.50;;;;;;4940803;28;90236;-32
2023/06/13 00:37:58;;;;;;;11.10;9.95;;;17.10;74.50;;;;;;4941053;28;89596;-33
2023/06/13 00:40:24;;;;;;;10.10;9.00;;;17.00;75.40;;;;;;4940222;28;88633;-34
2023/06/13 00:42:53;;;;;;;10.77;9.20;;;17.00;76.00;;;;;;4927773;28;88805;-34
2023/06/13 00:45:27;;;;;;;9.75;8.32;;;17.00;76.10;;;;;;4939737;28;90294;-33
2023/06/13 00:48:05;;;;;;;9.80;8.82;;;17.00;77.60;;;;;;4940776;28;89707;-38
2023/06/13 00:50:36;;;;;;;10.65;8.95;;;17.00;77.40;;;;;;4940766;28;89729;-33
2023/06/13 00:53:09;;;;;;;12.27;10.27;;;16.90;78.90;;;;;;4939917;28;90340;-36
2023/06/13 00:55:36;;;;;;;13.02;9.60;;;16.80;81.10;;;;;;4939370;28;91619;-32
2023/06/13 00:58:11;;;;;;;11.20;9.43;;;16.70;81.80;;;;;;4940388;28;90001;-33
2023/06/13 01:00:43;;;;;;;10.10;9.10;;;16.70;82.70;;;;;;4942470;28;89489;-34
2023/06/13 01:03:14;;;;;;;9.77;8.80;;;16.60;85.10;;;;;;4939548;28;89449;-33
2023/06/13 01:05:40;;;;;;;10.95;9.30;;;16.50;87.00;;;;;;4940206;28;90409;-37
2023/06/13 01:08:19;;;;;;;10.50;8.45;;;16.40;89.80;;;;;;4939613;28;88995;-36
2023/06/13 01:10:52;;;;;;;16.33;9.63;;;16.40;93.20;;;;;;4940379;28;89129;-35
2023/06/13 01:13:28;;;;;;;10.07;8.85;;;16.30;97.90;;;;;;4940519;28;90518;-34
2023/06/13 01:15:59;;;;;;;13.35;10.07;;;16.20;99.90;;;;;;4940207;28;89341;-34
2023/06/13 01:18:25;;;;;;;12.75;8.88;;;16.30;99.90;;;;;;4938629;28;90604;-35
2023/06/13 01:20:56;;;;;;;11.25;9.13;;;16.20;99.90;;;;;;4939465;28;90489;-33
2023/06/13 01:24:00;;;;;;;13.40;9.13;;;16.20;99.90;;;;;;4939829;28;88686;-33
2023/06/13 01:26:52;;;;;;;8.93;8.18;;;16.10;99.90;;;;;;4938889;28;90225;-35
2023/06/13 01:29:18;;;;;;;11.95;8.55;;;16.10;99.90;;;;;;4938331;28;89284;-35
2023/06/13 01:31:48;;;;;;;12.70;9.40;;;16.00;99.90;;;;;;4939580;28;90307;-33
2023/06/13 01:34:15;;;;;;;11.10;9.55;;;16.00;99.90;;;;;;4938986;28;89504;-33
2023/06/13 01:36:41;;;;;;;12.07;10.15;;;15.90;99.90;;;;;;4939936;28;90202;-39
2023/06/13 01:39:07;;;;;;;10.27;9.05;;;15.80;99.90;;;;;;4938304;28;89740;-33
2023/06/13 01:41:33;;;;;;;9.88;8.88;;;15.80;99.90;;;;;;4938303;28;89409;-34
2023/06/13 01:44:04;;;;;;;9.00;8.05;;;15.80;99.90;;;;;;4939681;28;90190;-33
2023/06/13 01:46:35;;;;;;;11.23;8.93;;;15.70;99.90;;;;;;4938182;28;90544;-37
2023/06/13 01:49:23;;;;;;;13.63;9.38;;;15.70;99.90;;;;;;4939167;28;90517;-37
2023/06/13 01:52:11;;;;;;;9.65;8.70;;;15.70;99.90;;;;;;4939685;28;89599;-34
2023/06/13 01:54:37;;;;;;;;;;;15.60;99.90;;;;;;4930641;28;88193;-35
2023/06/13 01:57:06;;;;;;;9.40;8.50;;;15.60;99.90;;;;;;4940747;28;90303;-33
2023/06/13 01:59:33;;;;;;;10.80;9.75;;;15.50;99.90;;;;;;4941192;28;90372;-33
2023/06/13 02:01:59;;;;;;;15.40;9.68;;;15.50;99.90;;;;;;4942127;28;88560;-33
2023/06/13 02:04:27;;;;;;;9.98;9.00;;;15.50;99.90;;;;;;4925392;28;87983;-39
2023/06/13 02:06:52;;;;;;;13.90;9.10;;;15.40;99.90;;;;;;4942840;28;90635;-34
2023/06/13 02:09:18;;;;;;;10.45;8.77;;;15.40;99.90;;;;;;4941847;28;89960;-34
2023/06/13 02:11:43;;;;;;;8.35;7.22;;;15.40;99.90;;;;;;4942610;28;90645;-35
2023/06/13 02:14:09;;;;;;;11.77;9.50;;;15.30;99.90;;;;;;4942532;28;89429;-37
2023/06/13 02:16:39;;;;;;;8.68;7.95;;;15.40;99.90;;;;;;4942168;28;89348;-35
2023/06/13 02:19:07;;;;;;;10.95;8.50;;;15.30;99.90;;;;;;4924933;28;90474;-33
2023/06/13 02:21:32;;;;;;;10.50;9.18;;;15.30;99.90;;;;;;4942430;28;89400;-38
2023/06/13 02:23:58;;;;;;;14.38;10.27;;;15.20;99.90;;;;;;4942112;28;88670;-36
2023/06/13 02:26:28;;;;;;;9.38;8.48;;;15.20;99.90;;;;;;4941246;28;89769;-38
2023/06/13 02:28:57;;;;;;;10.60;9.27;;;15.20;99.90;;;;;;4942486;28;89964;-32
2023/06/13 02:31:24;;;;;;;11.18;9.65;;;15.10;99.90;;;;;;4941361;28;89624;-35
2023/06/13 02:33:50;;;;;;;12.60;9.52;;;15.10;99.90;;;;;;4942408;28;89998;-32
2023/06/13 02:36:16;;;;;;;10.80;9.73;;;15.00;99.90;;;;;;4941353;28;90876;-34
2023/06/13 02:38:43;;;;;;;11.23;8.57;;;15.10;99.90;;;;;;4942329;28;89264;-35
2023/06/13 02:41:08;;;;;;;10.95;9.55;;;15.00;99.90;;;;;;4941678;28;90038;-32
2023/06/13 02:43:34;;;;;;;12.68;8.70;;;15.00;99.90;;;;;;4941889;28;88822;-33
2023/06/13 02:45:59;;;;;;;10.68;9.45;;;14.90;99.90;;;;;;4941600;28;90519;-36
2023/06/13 02:48:25;;;;;;;11.88;9.25;;;14.90;99.90;;;;;;4941607;28;89916;-36
2023/06/13 02:50:53;;;;;;;10.13;9.18;;;14.80;99.90;;;;;;4942283;28;88772;-33
2023/06/13 02:53:20;;;;;;;10.60;9.50;;;14.80;99.90;;;;;;4940867;28;89237;-34
2023/06/13 02:55:46;;;;;;;13.00;10.57;;;14.80;99.90;;;;;;4940923;28;90353;-33
2023/06/13 02:58:12;;;;;;;10.50;8.93;;;14.70;99.90;;;;;;4939672;28;90665;-38
2023/06/13 03:00:38;;;;;;;14.30;9.15;;;14.70;99.90;;;;;;4941749;28;90573;-32
2023/06/13 03:03:04;;;;;;;11.18;8.90;;;14.60;99.90;;;;;;4941338;28;89733;-32
2023/06/13 03:05:32;;;;;;;10.95;9.88;;;14.60;99.90;;;;;;4941356;28;89473;-37
2023/06/13 03:07:59;;;;;;;11.13;9.23;;;14.60;99.90;;;;;;4941579;28;89851;-37
2023/06/13 03:10:24;;;;;;;10.82;9.05;;;14.60;99.90;;;;;;4940301;28;89642;-33
2023/06/13 03:12:50;;;;;;;10.40;9.38;;;14.50;99.90;;;;;;4940970;28;89151;-37
2023/06/13 03:15:16;;;;;;;10.38;8.73;;;14.50;99.90;;;;;;4940706;28;90108;-36
2023/06/13 03:17:42;;;;;;;10.32;9.35;;;14.40;99.90;;;;;;4940739;28;88960;-34
2023/06/13 03:20:09;;;;;;;10.10;9.00;;;14.40;99.90;;;;;;4941310;28;89711;-36
2023/06/13 03:22:35;;;;;;;10.55;9.52;;;14.40;99.90;;;;;;4940745;28;89973;-33
2023/06/13 03:25:04;;;;;;;14.43;9.38;;;14.40;99.90;;;;;;4941125;28;91536;-39
2023/06/13 03:27:33;;;;;;;9.73;8.88;;;14.50;99.90;;;;;;4940821;28;89787;-34
2023/06/13 03:29:59;;;;;;;11.18;10.15;;;14.50;99.90;;;;;;4932963;28;90313;-40
2023/06/13 03:32:24;;;;;;;9.82;8.90;;;14.60;99.90;;;;;;4921772;28;88124;-34
2023/06/13 03:34:52;;;;;;;11.48;10.02;;;14.60;99.90;;;;;;4940384;28;90254;-35
2023/06/13 03:37:18;;;;;;;11.20;10.05;;;14.60;99.90;;;;;;4925013;28;89533;-39
2023/06/13 03:39:44;;;;;;;10.75;8.90;;;14.60;99.90;;;;;;4928864;28;89793;-35
2023/06/13 03:42:10;;;;;;;14.07;9.10;;;14.60;99.90;;;;;;4939144;28;88297;-35
2023/06/13 03:44:36;;;;;;;13.95;10.15;;;14.60;99.90;;;;;;4933386;28;89504;-35
2023/06/13 03:47:01;;;;;;;12.85;9.38;;;14.70;99.90;;;;;;4932006;28;90914;-33
2023/06/13 03:49:27;;;;;;;10.48;9.38;;;14.70;99.90;;;;;;4929229;28;90237;-39
2023/06/13 03:51:53;;;;;;;10.52;9.50;;;14.80;99.90;;;;;;4939497;28;88714;-36
2023/06/13 03:54:21;;;;;;;12.25;10.30;;;14.80;99.90;;;;;;4939634;28;90390;-36
2023/06/13 03:56:47;;;;;;;13.97;8.97;;;14.90;99.90;;;;;;4938170;28;89188;-34
2023/06/13 03:59:13;;;;;;;11.55;9.93;;;14.90;99.90;;;;;;4939467;28;91472;-33
2023/06/13 04:01:41;;;;;;;11.00;9.57;;;14.90;99.90;;;;;;4924982;28;89729;-35
2023/06/13 04:04:07;;;;;;;9.55;8.65;;;14.90;99.90;;;;;;4921531;28;90819;-39
2023/06/13 04:06:33;;;;;;;10.73;9.63;;;14.90;99.90;;;;;;4921411;28;89548;-33
2023/06/13 04:08:59;;;;;;;10.32;9.32;;;14.90;99.90;;;;;;4921701;28;89167;-33
2023/06/13 04:11:24;;;;;;;11.00;8.38;;;14.90;99.90;;;;;;4921662;28;90233;-39
2023/06/13 04:13:50;;;;;;;9.55;8.43;;;15.00;99.90;;;;;;4921215;28;90857;-39
2023/06/13 04:16:16;;;;;;;14.00;9.40;;;15.00;99.90;;;;;;4921064;28;88340;-38
2023/06/13 04:18:42;;;;;;;10.60;8.43;;;15.10;99.90;;;;;;4940016;28;89645;-33
2023/06/13 04:21:08;;;;;;;8.45;7.72;;;15.20;99.90;;;;;;4939451;28;88271;-33
2023/06/13 04:23:33;;;;;;;11.73;8.27;;;15.20;99.90;;;;;;4932489;28;90480;-35
2023/06/13 04:26:05;;;;;;;9.68;8.65;;;15.30;99.90;;;;;;4934412;28;90283;-34
2023/06/13 04:28:32;;;;;;;9.75;7.72;;;15.40;99.90;;;;;;4971594;22;90168;-33
2023/06/13 04:31:03;;;;;;;14.25;9.55;;;15.50;99.90;;;;;;4952382;28;87803;-37
2023/06/13 04:33:29;;;;;;;11.68;9.05;;;15.60;99.90;;;;;;4948712;28;89970;-37
2023/06/13 04:36:03;;;;;;;8.88;7.53;;;15.60;99.90;;;;;;4924418;28;90324;-33
2023/06/13 04:38:29;;;;;;;13.95;8.43;;;15.70;99.90;;;;;;4950415;28;91393;-34
2023/06/13 04:40:56;;;;;;;8.50;7.50;;;15.80;99.90;;;;;;4940402;28;90388;-35
2023/06/13 04:43:22;;;;;;;9.05;8.15;;;15.90;99.90;;;;;;4939997;28;90676;-33
2023/06/13 04:45:48;;;;;;;14.65;8.55;;;16.10;99.90;;;;;;4951470;28;90188;-34
2023/06/13 04:48:15;;;;;;;13.85;9.15;;;16.30;99.90;;;;;;4939262;28;89445;-35
2023/06/13 04:50:41;;;;;;;12.93;8.48;;;16.40;99.90;;;;;;4949994;28;89230;-33
2023/06/13 04:53:15;;;;;;;12.82;8.73;;;16.40;99.90;;;;;;4939811;28;90604;-35
2023/06/13 04:55:42;;;;;;;10.68;8.88;;;16.60;99.90;;;;;;4956211;28;89448;-39
2023/06/13 04:58:08;;;;;;;9.75;8.52;;;16.60;99.90;;;;;;4959341;28;89058;-34
2023/06/13 05:00:33;;;;;;;8.25;7.55;;;16.70;99.90;;;;;;4939241;28;88748;-32
2023/06/13 05:03:02;;;;;;;12.32;9.02;;;16.80;99.90;;;;;;4952168;28;89273;-35
2023/06/13 05:05:28;;;;;;;8.38;7.63;;;16.90;99.90;;;;;;4940084;28;89859;-33
2023/06/13 05:07:59;;;;;;;10.40;9.20;;;17.00;99.90;;;;;;4939043;28;89586;-37
2023/06/13 05:10:26;;;;;;;10.75;8.60;;;17.10;99.90;;;;;;4942236;28;89089;-36
2023/06/13 05:12:52;;;;;;;14.25;8.27;;;17.30;99.90;;;;;;4938966;28;88906;-34
2023/06/13 05:15:20;;;;;;;9.50;8.63;;;17.50;99.90;;;;;;4944439;28;90694;-33
2023/06/13 05:17:45;;;;;;;9.02;7.53;;;17.50;99.90;;;;;;4945572;28;90738;-33
2023/06/13 05:20:12;;;;;;;9.43;8.38;;;17.80;99.90;;;;;;4944028;28;88987;-33
2023/06/13 05:22:39;;;;;;;8.85;8.05;;;17.90;99.90;;;;;;4952454;28;90043;-32
2023/06/13 05:25:08;;;;;;;12.95;9.05;;;18.00;98.50;;;;;;4938318;28;90229;-31
2023/06/13 05:27:34;;;;;;;9.27;7.82;;;18.20;98.80;;;;;;4920948;28;90803;-37
2023/06/13 05:30:00;;;;;;;10.80;8.07;;;18.20;99.90;;;;;;4956193;28;88853;-36
2023/06/13 05:32:26;;;;;;;10.38;8.18;;;18.40;98.60;;;;;;4971442;28;90580;-35
2023/06/13 05:34:51;;;;;;;8.85;7.95;;;18.50;96.40;;;;;;4965430;28;90594;-38
2023/06/13 05:37:17;;;;;;;9.63;7.53;;;18.50;90.10;;;;;;4975990;28;89838;-36
2023/06/13 05:39:43;;;;;;;10.38;8.60;;;18.70;90.20;;;;;;4959327;28;89944;-33
2023/06/13 05:42:09;;;;;;;8.68;7.80;;;18.80;95.90;;;;;;4958200;28;90350;-38
2023/06/13 05:44:34;;;;;;;8.90;7.78;;;18.90;91.90;;;;;;4958767;28;89762;-31
2023/06/13 05:47:00;;;;;;;8.45;7.75;;;18.90;76.90;;;;;;4958957;28;90517;-34
2023/06/13 05:49:26;;;;;;;8.63;7.75;;;18.90;84.00;;;;;;4961372;28;89930;-33
2023/06/13 05:51:53;;;;;;;9.77;8.80;;;19.10;84.20;;;;;;4962485;28;88795;-33
2023/06/13 05:54:19;;;;;;;9.25;8.30;;;19.20;79.30;;;;;;4962427;28;89907;-38
2023/06/13 05:56:45;;;;;;;12.05;8.90;;;19.30;77.30;;;;;;4959892;28;90642;-33
2023/06/13 05:59:14;;;;;;;13.60;7.75;;;19.40;74.50;;;;;;4963586;28;89481;-33
2023/06/13 06:01:41;;;;;;;10.32;8.65;;;19.40;72.10;;;;;;4940618;28;90925;-34
2023/06/13 06:04:07;;;;;;;10.70;7.70;;;19.50;71.10;;;;;;4957040;28;89362;-32
2023/06/13 06:06:32;;;;;;;10.85;8.52;;;19.60;71.70;;;;;;4959184;28;90160;-33
2023/06/13 06:08:58;;;;;;;9.45;8.60;;;19.70;70.90;;;;;;4958291;28;88794;-31
2023/06/13 06:11:24;;;;;;;8.85;7.70;;;19.80;70.10;;;;;;4958106;28;89668;-34
2023/06/13 06:13:49;;;;;;;10.45;7.75;;;20.00;70.60;;;;;;4957915;28;90935;-34
2023/06/13 06:16:15;;;;;;;8.80;7.47;;;19.90;68.70;;;;;;4958712;28;91740;-32
2023/06/13 06:18:41;;;;;;;8.43;7.63;;;19.90;68.70;;;;;;4959495;28;89141;-32
2023/06/13 06:21:07;;;;;;;12.88;8.40;;;20.10;67.60;;;;;;4958136;28;89857;-35
2023/06/13 06:23:32;;;;;;;8.13;7.38;;;20.20;66.50;;;;;;4958918;28;90692;-33
2023/06/13 06:25:58;;;;;;;8.80;7.78;;;20.30;66.00;;;;;;4957672;28;88998;-32
2023/06/13 06:28:23;;;;;;;8.73;7.25;;;20.40;66.40;;;;;;4958306;28;88990;-39
2023/06/13 06:30:49;;;;;;;9.88;8.05;;;20.40;66.20;;;;;;4958141;28;90190;-36
2023/06/13 06:33:15;;;;;;;10.18;7.13;;;20.50;64.40;;;;;;4957693;28;89682;-33
2023/06/13 06:35:41;;;;;;;7.63;6.90;;;20.60;65.50;;;;;;4958080;28;91495;-33
2023/06/13 06:38:06;;;;;;;8.27;7.43;;;20.60;64.70;;;;;;4956735;28;90039;-35
2023/06/13 06:40:32;;;;;;;10.15;8.10;;;20.70;64.10;;;;;;4958498;28;89981;-37
2023/06/13 06:42:57;;;;;;;10.88;8.23;;;20.70;63.00;;;;;;4957874;28;90043;-37
2023/06/13 06:45:23;;;;;;;9.93;6.47;;;20.80;63.20;;;;;;4958719;28;89659;-35
2023/06/13 06:47:49;;;;;;;6.85;6.15;;;21.00;63.40;;;;;;4960703;28;88796;-35
2023/06/13 06:50:14;;;;;;;8.02;7.05;;;21.10;62.60;;;;;;4961178;28;89730;-34
2023/06/13 06:52:40;;;;;;;7.97;6.57;;;21.20;61.50;;;;;;4961888;28;89959;-34
2023/06/13 06:55:06;;;;;;;7.32;6.38;;;21.20;59.90;;;;;;4961012;28;89732;-33
2023/06/13 06:57:31;;;;;;;7.10;5.78;;;21.30;59.20;;;;;;4961874;28;90323;-35
2023/06/13 06:59:57;;;;;;;8.88;5.63;;;21.30;59.10;;;;;;4959744;28;90138;-36
2023/06/13 07:02:22;;;;;;;10.05;6.20;;;21.50;59.40;;;;;;4960266;28;90520;-34
2023/06/13 07:04:48;;;;;;;5.50;5.00;;;21.80;59.60;;;;;;4959024;28;90357;-33
2023/06/13 07:07:14;;;;;;;7.90;6.25;;;21.90;58.30;;;;;;4961065;28;89765;-32
2023/06/13 07:09:40;;;;;;;7.18;5.72;;;22.00;57.30;;;;;;4960488;28;90760;-34
2023/06/13 07:12:06;;;;;;;9.20;5.70;;;22.00;56.40;;;;;;4943391;28;88849;-33
2023/06/13 07:14:31;;;;;;;5.90;5.40;;;22.10;57.60;;;;;;4960615;28;89733;-35
2023/06/13 07:16:57;;;;;;;6.75;4.88;;;22.30;57.00;;;;;;4960603;28;88258;-35
2023/06/13 07:19:26;;;;;;;7.82;5.53;;;22.40;57.60;;;;;;4960935;28;90131;-33
2023/06/13 07:21:51;;;;;;;6.35;5.75;;;22.70;57.20;;;;;;4961372;28;89794;-34
2023/06/13 07:24:17;;;;;;;5.78;5.13;;;22.50;55.40;;;;;;4960027;28;89668;-31
2023/06/13 07:26:42;;;;;;;6.75;6.13;;;22.60;55.50;;;;;;4960018;28;89271;-32
2023/06/13 07:29:08;;;;;;;7.07;6.45;;;22.70;56.50;;;;;;4959982;28;90296;-34
2023/06/13 07:31:34;;;;;;;9.73;5.22;;;23.10;57.60;;;;;;4960653;28;90277;-34
2023/06/13 07:33:59;;;;;;;5.70;5.20;;;23.20;56.80;;;;;;4960383;28;90011;-36
2023/06/13 07:36:27;;;;;;;10.93;5.70;;;23.30;55.90;;;;;;4960094;28;87691;-34
2023/06/13 07:38:52;;;;;;;5.53;5.05;;;23.20;56.00;;;;;;4959467;28;90164;-37
2023/06/13 07:41:18;;;;;;;5.00;4.55;;;23.40;55.40;;;;;;4943778;28;90363;-31
2023/06/13 07:43:44;;;;;;;30.65;10.20;;;23.40;54.80;;;;;;4960495;28;89848;-31
2023/06/13 07:46:09;;;;;;;8.60;5.38;;;23.50;56.20;;;;;;4959462;28;88839;-34
2023/06/13 07:48:35;;;;;;;32.95;7.90;;;23.60;54.80;;;;;;4959588;28;90799;-33
2023/06/13 07:51:01;;;;;;;7.07;5.57;;;23.70;55.10;;;;;;4959499;28;90749;-34
2023/06/13 07:53:26;;;;;;;4.90;4.50;;;23.80;56.50;;;;;;4959858;28;89403;-34
2023/06/13 07:55:54;;;;;;;7.13;5.22;;;23.90;56.50;;;;;;4959888;28;88142;-36
2023/06/13 07:58:20;;;;;;;;;;;24.00;56.20;;;;;;4959023;28;89848;-38
2023/06/13 08:00:45;;;;;;;6.97;5.75;;;24.20;55.80;;;;;;4961374;28;89171;-33
2023/06/13 08:03:11;;;;;;;8.63;5.72;;;24.40;56.10;;;;;;4959564;28;89458;-35
2023/06/13 08:05:36;;;;;;;8.98;5.30;;;24.40;55.40;;;;;;4958823;28;89704;-36
2023/06/13 08:08:02;;;;;;;5.97;5.32;;;24.50;54.80;;;;;;4959641;28;90838;-34
2023/06/13 08:10:28;;;;;;;7.63;6.13;;;24.70;54.90;;;;;;4960113;28;88442;-32
2023/06/13 08:12:54;;;;;;;6.78;5.35;;;24.60;53.80;;;;;;4959373;28;89734;-35
2023/06/13 08:15:20;;;;;;;6.53;4.95;;;24.60;54.40;;;;;;4959474;28;89332;-35
2023/06/13 08:17:45;;;;;;;9.93;5.55;;;24.80;52.80;;;;;;4959388;28;91367;-31
2023/06/13 08:20:11;;;;;;;5.05;4.47;;;24.70;53.80;;;;;;4959210;28;89493;-35
2023/06/13 08:22:38;;;;;;;23.42;7.13;;;24.70;51.90;;;;;;4960051;28;87589;-33
2023/06/13 08:25:07;;;;;;;12.43;5.33;;;24.80;53.70;;;;;;4960036;28;89624;-32
2023/06/13 08:27:35;;;;;;;10.07;5.15;;;24.90;52.20;;;;;;4959279;28;92584;-33
2023/06/13 08:30:02;;;;;;;;;;;25.00;52.10;;;;;;4959113;28;90276;-33
2023/06/13 08:32:28;;;;;;;5.90;5.32;;;25.10;51.90;;;;;;4960864;28;88930;-37
2023/06/13 08:34:54;;;;;;;11.68;4.82;;;25.10;50.50;;;;;;4960274;28;89231;-34
2023/06/13 08:37:20;;;;;;;7.45;5.82;;;25.00;50.90;;;;;;4959674;28;91129;-32
2023/06/13 08:39:45;;;;;;;4.95;4.45;;;25.10;50.40;;;;;;4959066;28;90653;-34
2023/06/13 08:42:11;;;;;;;4.68;4.28;;;25.30;51.80;;;;;;4958373;28;90618;-34
2023/06/13 08:44:37;;;;;;;8.95;5.00;;;25.40;51.00;;;;;;4959605;28;89622;-37
2023/06/13 08:47:03;;;;;;;5.03;4.53;;;25.40;49.30;;;;;;4959153;28;91520;-34
2023/06/13 08:49:31;;;;;;;6.82;5.28;;;25.50;50.10;;;;;;4959275;28;89684;-33
2023/06/13 08:51:58;;;;;;;4.63;4.22;;;25.40;48.40;;;;;;4959210;28;89018;-37
2023/06/13 08:54:25;;;;;;;4.13;3.83;;;25.40;49.20;;;;;;4959926;28;89467;-32
2023/06/13 08:56:53;;;;;;;7.07;4.25;;;25.80;50.10;;;;;;4959201;28;90078;-36
2023/06/13 08:59:26;;;;;;;5.00;4.65;;;25.70;49.20;;;;;;4958686;28;89737;-34
2023/06/13 09:01:54;;;;;;;6.78;5.07;;;25.80;49.70;;;;;;4959328;28;89054;-33
2023/06/13 09:04:20;;;;;;;6.15;4.28;;;25.90;50.30;;;;;;4958907;28;88551;-33
2023/06/13 09:06:48;;;;;;;6.05;5.05;;;26.00;49.20;;;;;;4958890;28;89764;-38
2023/06/13 09:09:16;;;;;;;6.00;4.50;;;26.20;50.20;;;;;;4958096;28;88271;-33
2023/06/13 09:11:44;;;;;;;4.93;3.88;;;26.10;49.20;;;;;;4959078;28;89944;-33
2023/06/13 09:14:11;;;;;;;4.70;4.22;;;26.20;48.60;;;;;;4959189;28;89332;-34
2023/06/13 09:16:37;;;;;;;4.65;4.25;;;26.30;48.30;;;;;;4958537;28;91221;-36
2023/06/13 09:19:03;;;;;;;9.55;4.95;;;26.20;46.40;;;;;;4959051;28;89784;-36
2023/06/13 09:21:28;;;;;;;8.20;5.13;;;26.30;47.30;;;;;;4958499;28;89461;-36
2023/06/13 09:23:57;;;;;;;5.90;4.93;;;26.30;47.30;;;;;;4959079;28;90048;-34
2023/06/13 09:26:24;;;;;;;5.10;4.60;;;26.20;46.20;;;;;;4958671;28;90213;-38
2023/06/13 09:28:51;;;;;;;6.67;4.33;;;26.30;47.00;;;;;;4958581;28;90176;-35
2023/06/13 09:31:16;;;;;;;4.80;4.25;;;26.40;47.80;;;;;;4957597;28;90651;-36
2023/06/13 09:33:45;;;;;;;5.35;4.45;;;26.50;47.70;;;;;;4959395;28;87676;-38
2023/06/13 09:36:11;;;;;;;13.90;7.85;;;26.30;45.70;;;;;;4958498;28;90634;-33
2023/06/13 09:38:40;;;;;;;8.90;5.13;;;26.40;46.00;;;;;;4958773;28;89444;-34
2023/06/13 09:41:08;;;;;;;7.10;5.45;;;26.40;46.00;;;;;;4957841;28;89080;-33
2023/06/13 09:43:33;;;;;;;;;;;26.50;47.20;;;;;;4959160;28;88392;-34
2023/06/13 09:46:00;;;;;;;32.38;7.47;;;26.40;46.90;;;;;;4959789;28;90190;-35
2023/06/13 09:48:26;;;;;;;53.30;12.98;;;26.60;47.40;;;;;;4958064;28;89480;-36
2023/06/13 09:50:51;;;;;;;39.30;9.45;;;26.60;46.40;;;;;;4958519;28;91282;-35
2023/06/13 09:53:18;;;;;;;12.90;5.53;;;26.50;47.20;;;;;;4958376;28;88459;-33
2023/06/13 09:55:44;;;;;;;10.77;4.80;;;26.70;46.80;;;;;;4958245;28;90335;-33
2023/06/13 09:58:10;;;;;;;10.93;5.20;;;26.80;47.60;;;;;;4958595;28;89486;-37
2023/06/13 10:00:36;;;;;;;102.88;17.60;;;26.80;47.00;;;;;;4958384;28;90445;-34
2023/06/13 10:03:03;;;;;;;23.80;6.65;;;26.80;47.80;;;;;;4958795;28;90116;-37
2023/06/13 10:05:29;;;;;;;17.53;5.77;;;26.80;46.20;;;;;;4957612;28;91085;-36
2023/06/13 10:07:55;;;;;;;5.57;3.97;;;26.90;46.70;;;;;;4957881;28;90002;-37
2023/06/13 10:10:21;;;;;;;7.30;5.55;;;26.80;46.80;;;;;;4958028;28;89903;-38
2023/06/13 10:12:58;;;;;;;8.80;5.47;;;26.70;46.00;;;;;;4959261;28;89106;-33
2023/06/13 10:15:42;;;;;;;10.45;6.57;;;26.80;46.70;;;;;;4947097;28;91671;-36
2023/06/13 10:18:14;;;;;;;6.15;5.25;;;26.70;47.90;;;;;;4957540;28;90170;-35
2023/06/13 10:20:40;;;;;;;4.82;4.32;;;26.50;47.50;;;;;;4958926;28;90917;-33
2023/06/13 10:23:13;;;;;;;5.22;4.70;;;26.60;46.40;;;;;;4944718;28;89399;-37
2023/06/13 10:25:40;;;;;;;5.50;4.20;;;26.80;46.00;;;;;;4961625;28;91810;-33
2023/06/13 10:28:32;;;;;;;6.82;4.43;;;26.80;47.30;;;;;;4960767;28;90016;-38
2023/06/13 10:31:11;;;;;;;4.88;4.47;;;27.00;46.70;;;;;;4961228;28;89622;-34
2023/06/13 10:33:55;;;;;;;6.30;4.50;;;26.90;47.00;;;;;;4961297;28;89364;-32
2023/06/13 10:37:01;;;;;;;8.57;5.38;;;26.90;47.10;;;;;;4948930;28;90138;-38
2023/06/13 10:39:38;;;;;;;8.40;6.13;;;26.80;47.00;;;;;;4892164;28;91822;-35
2023/06/13 10:42:23;;;;;;;;;;;27.00;47.40;;;;;;4886705;28;90049;-36
2023/06/13 10:44:58;;;;;;;7.53;5.63;;;27.00;46.80;;;;;;4932786;28;90164;-33
2023/06/13 10:47:24;;;;;;;5.53;5.10;;;26.90;47.00;;;;;;4960762;28;90241;-35
2023/06/13 10:49:51;;;;;;;5.55;4.75;;;26.80;47.10;;;;;;4961456;28;89878;-36
2023/06/13 10:52:21;;;;;;;6.50;4.50;;;26.80;46.30;;;;;;4960438;28;89408;-33
2023/06/13 10:54:55;;;;;;;4.90;4.45;;;26.90;47.20;;;;;;4961476;28;90237;-33
2023/06/13 10:57:22;;;;;;;11.60;5.75;;;26.90;46.50;;;;;;4948560;28;91153;-32
2023/06/13 10:59:49;;;;;;;6.93;5.75;;;26.70;46.10;;;;;;4960918;28;89681;-36
2023/06/13 11:02:19;;;;;;;6.35;4.75;;;26.80;46.10;;;;;;4948840;28;90445;-37
2023/06/13 11:04:52;;;;;;;6.70;5.50;;;26.70;45.90;;;;;;4961239;28;89973;-38
2023/06/13 11:07:21;;;;;;;6.88;4.95;;;26.80;47.70;;;;;;4948746;28;90477;-34
2023/06/13 11:10:15;;;;;;;9.38;5.85;;;26.60;47.20;;;;;;4960581;28;90264;-34
2023/06/13 11:12:43;;;;;;;7.15;6.53;;;26.60;45.50;;;;;;4960014;28;89546;-38
2023/06/13 11:15:26;;;;;;;6.90;5.82;;;26.70;46.70;;;;;;4961114;28;89241;-36
2023/06/13 11:18:07;;;;;;;6.97;5.45;;;26.90;46.60;;;;;;4959945;28;90239;-37
2023/06/13 11:20:33;;;;;;;7.07;6.07;;;26.80;46.10;;;;;;4961114;28;89490;-37
2023/06/13 11:22:59;;;;;;;7.00;5.45;;;26.90;46.70;;;;;;4960345;28;90160;-33
2023/06/13 11:25:24;;;;;;;8.52;6.80;;;26.70;44.90;;;;;;4960762;28;87785;-36
2023/06/13 11:27:50;;;;;;;7.65;5.30;;;26.60;43.10;;;;;;4959888;28;90441;-36
2023/06/13 11:30:17;;;;;;;6.60;6.03;;;26.50;44.00;;;;;;4960436;28;90766;-36
2023/06/13 11:32:43;;;;;;;5.57;4.83;;;26.60;45.90;;;;;;4959616;28;89267;-33
2023/06/13 11:35:13;;;;;;;11.13;5.72;;;26.60;46.20;;;;;;4960110;28;90007;-33
2023/06/13 11:37:45;;;;;;;5.18;4.70;;;26.40;45.00;;;;;;4960253;28;90219;-31
2023/06/13 11:40:32;;;;;;;5.90;5.38;;;26.50;46.60;;;;;;4960595;28;89599;-36
2023/06/13 11:42:58;;;;;;;9.15;6.38;;;26.60;46.70;;;;;;4949155;28;89368;-34
2023/06/13 11:45:24;;;;;;;5.88;5.05;;;26.70;47.40;;;;;;4960584;28;88717;-37
2023/06/13 11:47:59;;;;;;;6.22;5.72;;;26.60;46.10;;;;;;4960878;28;89925;-33
2023/06/13 11:50:26;;;;;;;11.38;5.20;;;26.70;46.20;;;;;;4959796;28;89535;-34
2023/06/13 11:53:05;;;;;;;13.63;5.95;;;26.60;46.40;;;;;;4943665;28;89418;-35
2023/06/13 11:55:31;;;;;;;5.63;5.13;;;26.50;45.90;;;;;;4960212;28;89214;-33
2023/06/13 11:57:56;;;;;;;6.82;6.20;;;26.60;46.60;;;;;;4960121;28;90376;-34
2023/06/13 12:00:26;;;;;;;6.03;5.32;;;26.60;45.10;;;;;;4960800;28;89533;-33
2023/06/13 12:02:52;;;;;;;5.70;5.28;;;26.60;46.60;;;;;;4960168;28;89308;-35
2023/06/13 12:05:19;;;;;;;5.90;5.15;;;26.60;46.00;;;;;;4960242;28;89172;-34
2023/06/13 12:07:45;;;;;;;8.13;6.05;;;26.50;46.60;;;;;;4959949;28;89801;-35
2023/06/13 12:10:12;;;;;;;5.72;5.22;;;26.80;45.90;;;;;;4959359;28;89882;-34
2023/06/13 12:12:38;;;;;;;7.18;5.10;;;26.70;45.60;;;;;;4960158;28;89117;-34
2023/06/13 12:15:07;;;;;;;8.80;5.50;;;26.70;46.40;;;;;;4960187;28;89496;-33
2023/06/13 12:17:32;;;;;;;6.30;5.47;;;26.50;45.00;;;;;;4959607;28;90319;-34
2023/06/13 12:20:08;;;;;;;6.43;5.82;;;26.50;45.50;;;;;;4954749;28;89522;-33
2023/06/13 12:22:34;;;;;;;6.18;5.68;;;26.60;46.00;;;;;;4959895;28;88912;-37
2023/06/13 12:25:00;;;;;;;7.13;5.53;;;26.50;44.70;;;;;;4941388;28;89722;-38
2023/06/13 12:27:26;;;;;;;5.43;5.03;;;26.50;46.20;;;;;;4960069;28;90375;-33
2023/06/13 12:29:52;;;;;;;10.65;5.13;;;26.30;47.00;;;;;;4959734;28;89945;-33
2023/06/13 12:32:22;;;;;;;6.20;5.60;;;26.40;47.90;;;;;;4959494;28;89518;-33
2023/06/13 12:34:48;;;;;;;10.18;5.68;;;26.50;48.60;;;;;;4960217;28;89808;-34
2023/06/13 12:37:13;;;;;;;5.90;5.40;;;26.40;48.00;;;;;;4958304;28;89829;-34
2023/06/13 12:40:06;;;;;;;7.93;5.07;;;26.40;47.80;;;;;;4950124;28;89674;-36
2023/06/13 12:42:34;;;;;;;6.70;5.80;;;26.50;46.30;;;;;;4958233;28;89909;-34
2023/06/13 12:45:00;;;;;;;5.78;5.18;;;26.60;45.10;;;;;;4959033;28;88991;-36
2023/06/13 12:47:26;;;;;;;8.05;6.18;;;26.70;44.70;;;;;;4958525;28;90720;-34